Hlavní strana
METAR-TAF:

METAR-TAF

Letiště :

Rocky Mount-Wilson Regional Airport

Rocky Mount, Severní Karolína, Spojené státy americké

zeměpisná šířka: 35-51-18N, zeměpisná délka: 077-53-35W, výška: 49 m

Aktuální stav počasí

Zpráva byla vytvořena před 1 hodinou a 6 minutami, v 16:53 UTC
Západoseverozápadní vítr 11 kt s nárazy do 21 kt
Teplota 8°C
Vlhkost vzduchu 36%
Tlak 1015 hPa
Viditelnost: 16.1 km
Jasno

METAR: KRWI 271653Z AUTO 30011G21KT 10SM CLR 08/M06 A2997 RMK AO2 SLP149 T00831061

Čas: 12:59 (17:59 UTC)

Předpověď počasí

Zpráva byla vytvořena před 31 minutami, v 17:28 UTC
Předpověď platná od 27 v 18 UTC do 28 v 18 UTC
Západní vítr 15 kt s nárazy do 25 kt
Viditelnost: 10 km
Jasno
Od 28 v 0000 UTC
Západní vítr 4 kt
Viditelnost: 10 km
Jasno
Od 28 v 1600 UTC
Jihozápadní vítr 13 kt s nárazy do 20 kt
Viditelnost: 10 km
Zataženo ve výšce 10000 ft

TAF: KRWI 271728Z 2718/2818 28015G25KT P6SM SKC FM280000 26004KT P6SM SKC FM281600 23013G20KT P6SM OVC100

Stav a předpovědi počasí z více než 4 000 letišť (zprávy METAR a TAF).

Červené a žluté tečky na mapě představují dostupné meteorologické stanice.

Když kurzor umístíte na tečku, zobrazí se název stanice.

Pak kliknutím zobrazíte stav a předpověď počasí.

Chcete-li změnit mapu, kliknutím na zelené tlačítko se znaménkem +mapu přiblížíte, kliknutím na zelené tlačítko se znaménkem – mapu oddálíte a kliknutím na zelené šipky přejdete na sousední mapy.


METAR-TAF: